createdAt,value
2018-05-09T00:00:27.526Z,17.60
2018-05-09T00:02:28.533Z,17.60
2018-05-09T00:04:30.534Z,17.50
2018-05-09T00:06:31.530Z,17.40
2018-05-09T00:08:39.688Z,17.40
2018-05-09T00:10:40.674Z,17.60
2018-05-09T00:12:41.914Z,17.40
2018-05-09T00:14:42.918Z,17.40
2018-05-09T00:16:44.048Z,17.50
2018-05-09T00:18:45.230Z,17.50
2018-05-09T00:20:47.297Z,17.40
2018-05-09T00:22:48.263Z,17.40
2018-05-09T00:24:49.623Z,17.50
2018-05-09T00:26:50.889Z,17.50
2018-05-09T00:28:52.512Z,17.40
2018-05-09T00:30:53.541Z,17.40
2018-05-09T00:32:54.763Z,17.40
2018-05-09T00:34:55.763Z,17.30
2018-05-09T00:36:57.027Z,17.40
2018-05-09T00:38:58.539Z,17.40
2018-05-09T00:40:59.744Z,17.50
2018-05-09T00:43:01.522Z,17.50
2018-05-09T00:45:03.154Z,17.40
2018-05-09T00:47:04.686Z,17.40
2018-05-09T00:49:06.176Z,17.40
2018-05-09T00:51:07.160Z,17.40
2018-05-09T00:53:08.595Z,17.40
2018-05-09T00:55:09.702Z,17.40
2018-05-09T00:57:11.434Z,17.30
2018-05-09T00:59:12.421Z,17.30
2018-05-09T01:01:13.385Z,17.30
2018-05-09T01:03:14.758Z,17.30
2018-05-09T01:05:15.731Z,17.30
2018-05-09T01:07:16.777Z,17.30
2018-05-09T01:09:18.147Z,17.30
2018-05-09T01:11:19.142Z,17.30
2018-05-09T01:13:20.125Z,17.30
2018-05-09T01:15:21.431Z,17.20
2018-05-09T01:17:22.414Z,17.30
2018-05-09T01:19:23.387Z,17.30
2018-05-09T01:21:24.391Z,17.20
2018-05-09T01:23:25.382Z,17.30
2018-05-09T01:25:26.751Z,17.30
2018-05-09T01:27:27.727Z,17.30
2018-05-09T01:29:28.708Z,17.20
2018-05-09T01:31:30.066Z,17.20
2018-05-09T01:33:31.064Z,17.20
2018-05-09T01:35:32.053Z,17.00
2018-05-09T01:37:33.023Z,17.10
2018-05-09T01:39:33.986Z,17.00
2018-05-09T01:41:35.315Z,17.00
2018-05-09T01:43:36.302Z,17.00
2018-05-09T01:45:37.289Z,16.90
2018-05-09T01:47:38.655Z,16.90
2018-05-09T01:49:39.643Z,17.00
2018-05-09T01:51:40.659Z,16.90
2018-05-09T01:53:41.681Z,16.90
2018-05-09T01:55:42.647Z,16.90
2018-05-09T01:57:43.634Z,16.90
2018-05-09T01:59:44.627Z,16.80
2018-05-09T02:01:45.632Z,16.80
2018-05-09T02:03:46.625Z,16.80
2018-05-09T02:05:47.962Z,16.80
2018-05-09T02:07:49.323Z,16.70
2018-05-09T02:09:50.325Z,16.70
2018-05-09T02:11:51.286Z,16.70
2018-05-09T02:13:52.646Z,16.90
2018-05-09T02:15:53.750Z,16.80
2018-05-09T02:17:55.094Z,16.90
2018-05-09T02:19:56.462Z,16.70
2018-05-09T02:21:57.466Z,16.70
2018-05-09T02:23:58.876Z,16.70
2018-05-09T02:25:59.775Z,16.80
2018-05-09T02:28:00.756Z,16.80
2018-05-09T02:30:01.760Z,16.70
2018-05-09T02:32:02.754Z,16.80
2018-05-09T02:34:03.726Z,16.70
2018-05-09T02:36:04.751Z,16.70
2018-05-09T02:38:05.749Z,16.70
2018-05-09T02:40:06.739Z,16.60
2018-05-09T02:42:07.763Z,16.60
2018-05-09T02:44:08.766Z,16.50
2018-05-09T02:46:16.702Z,16.50
2018-05-09T02:48:17.701Z,16.50
2018-05-09T02:50:19.233Z,16.40
2018-05-09T02:52:20.234Z,16.40
2018-05-09T02:54:22.127Z,16.40
2018-05-09T02:56:23.138Z,16.40
2018-05-09T02:58:24.110Z,16.50
2018-05-09T03:00:25.855Z,16.50
2018-05-09T03:02:26.834Z,16.50
2018-05-09T03:04:27.815Z,16.40
2018-05-09T03:06:29.159Z,16.30
2018-05-09T03:08:30.146Z,16.40
2018-05-09T03:10:31.114Z,16.40
2018-05-09T03:12:32.101Z,16.40
2018-05-09T03:14:33.075Z,16.30
2018-05-09T03:16:34.079Z,16.30
2018-05-09T03:18:35.066Z,16.20
2018-05-09T03:20:36.034Z,16.20
2018-05-09T03:22:37.139Z,16.20
2018-05-09T03:24:38.111Z,16.30
2018-05-09T03:26:39.099Z,16.30
2018-05-09T03:28:40.099Z,16.30
2018-05-09T03:30:41.064Z,16.30
2018-05-09T03:32:42.050Z,16.30
2018-05-09T03:34:43.027Z,16.30
2018-05-09T03:36:44.019Z,16.30
2018-05-09T03:38:45.123Z,16.30
2018-05-09T03:40:46.098Z,16.30
2018-05-09T03:42:47.077Z,16.30
2018-05-09T03:44:48.062Z,16.40
2018-05-09T03:46:49.027Z,16.40
2018-05-09T03:48:50.003Z,16.40
2018-05-09T03:50:51.380Z,16.30
2018-05-09T03:52:52.374Z,16.30
2018-05-09T03:54:53.382Z,16.30
2018-05-09T03:56:54.362Z,16.10
2018-05-09T03:58:55.706Z,16.00
2018-05-09T04:00:57.074Z,15.90
2018-05-09T04:03:10.338Z,15.90
2018-05-09T04:05:23.773Z,15.90
2018-05-09T04:07:37.203Z,15.80
2018-05-09T04:09:48.290Z,15.80
2018-05-09T04:11:49.270Z,15.70
2018-05-09T04:15:58.714Z,15.60
2018-05-09T04:17:59.874Z,15.70
2018-05-09T04:20:01.581Z,15.70
2018-05-09T04:22:02.943Z,15.70
2018-05-09T04:24:04.235Z,15.70
2018-05-09T04:26:05.291Z,15.90
2018-05-09T04:28:06.677Z,15.90
2018-05-09T04:30:08.441Z,15.90
2018-05-09T04:32:09.398Z,15.80
2018-05-09T04:34:10.785Z,15.70
2018-05-09T04:36:11.892Z,15.70
2018-05-09T04:38:12.782Z,15.70
2018-05-09T04:40:13.762Z,15.70
2018-05-09T04:42:15.482Z,16.20
2018-05-09T04:46:19.358Z,16.20
2018-05-09T04:48:20.353Z,16.20
2018-05-09T04:50:21.339Z,16.20
2018-05-09T04:52:23.078Z,16.40
2018-05-09T04:54:24.063Z,16.40
2018-05-09T04:56:25.050Z,16.40
2018-05-09T04:58:26.030Z,16.30
2018-05-09T05:00:27.003Z,16.30
2018-05-09T05:02:28.738Z,16.40
2018-05-09T05:04:29.711Z,16.40
2018-05-09T05:06:30.702Z,16.50
2018-05-09T05:08:31.721Z,16.50
2018-05-09T05:10:32.685Z,16.40
2018-05-09T05:12:34.041Z,16.50
2018-05-09T05:14:36.611Z,16.60
2018-05-09T05:16:38.130Z,16.70
2018-05-09T05:18:39.240Z,16.70
2018-05-09T05:20:40.531Z,16.90
2018-05-09T05:22:41.877Z,16.70
2018-05-09T05:24:43.614Z,16.80
2018-05-09T05:26:44.782Z,16.90
2018-05-09T05:28:45.770Z,16.90
2018-05-09T05:30:46.786Z,17.00
2018-05-09T05:32:47.786Z,17.20
2018-05-09T05:34:49.170Z,17.20
2018-05-09T05:36:50.159Z,17.40
2018-05-09T05:38:51.929Z,17.20
2018-05-09T05:40:54.603Z,17.30
2018-05-09T05:42:55.599Z,17.30
2018-05-09T05:44:56.646Z,17.30
2018-05-09T05:46:57.970Z,17.40
2018-05-09T05:48:58.947Z,17.50
2018-05-09T05:50:59.950Z,17.50
2018-05-09T05:53:00.923Z,17.60
2018-05-09T05:55:01.901Z,17.70
2018-05-09T05:57:02.975Z,17.90
2018-05-09T05:59:04.326Z,17.90
2018-05-09T06:01:05.337Z,17.90
2018-05-09T06:03:06.505Z,18.00
2018-05-09T06:05:07.569Z,18.20
2018-05-09T06:07:08.566Z,18.20
2018-05-09T06:09:09.931Z,18.40
2018-05-09T06:11:10.906Z,18.40
2018-05-09T06:13:11.887Z,18.50
2018-05-09T06:15:13.182Z,18.40
2018-05-09T06:17:14.239Z,18.50
2018-05-09T06:19:15.902Z,18.60
2018-05-09T06:21:17.237Z,18.70
2018-05-09T06:23:18.326Z,18.70
2018-05-09T06:25:19.305Z,18.90
2018-05-09T06:27:20.298Z,18.90
2018-05-09T06:29:21.315Z,19.00
2018-05-09T06:31:22.290Z,19.10
2018-05-09T06:33:23.261Z,19.20
2018-05-09T06:35:24.628Z,19.30
2018-05-09T06:37:25.606Z,19.30
2018-05-09T06:39:26.607Z,19.30
2018-05-09T06:41:27.594Z,19.30
2018-05-09T06:43:28.562Z,19.60
2018-05-09T06:45:29.527Z,19.30
2018-05-09T06:47:30.544Z,19.30
2018-05-09T06:49:31.695Z,19.40
2018-05-09T06:51:32.675Z,19.60
2018-05-09T06:53:33.665Z,19.60
2018-05-09T06:57:42.455Z,19.70
2018-05-09T06:59:43.976Z,20.10
2018-05-09T07:01:44.967Z,20.10
2018-05-09T07:03:45.955Z,20.00
2018-05-09T07:05:46.926Z,20.20
2018-05-09T07:07:47.878Z,20.30
2018-05-09T07:09:48.858Z,20.20
2018-05-09T07:11:49.862Z,20.40
2018-05-09T07:13:50.843Z,20.50
2018-05-09T07:15:59.287Z,20.80
2018-05-09T07:18:00.266Z,20.80
2018-05-09T07:20:01.254Z,20.90
2018-05-09T07:22:02.231Z,20.90
2018-05-09T07:24:03.230Z,21.00
2018-05-09T07:26:04.224Z,20.60
2018-05-09T07:28:05.569Z,21.00
2018-05-09T07:30:06.922Z,21.20
2018-05-09T07:32:08.279Z,21.20
2018-05-09T07:34:09.474Z,21.20
2018-05-09T07:36:10.473Z,21.30
2018-05-09T07:38:11.445Z,21.30
2018-05-09T07:40:12.690Z,21.20
2018-05-09T07:42:13.695Z,21.30
2018-05-09T07:44:14.638Z,21.50
2018-05-09T07:46:15.637Z,21.60
2018-05-09T07:48:16.626Z,21.70
2018-05-09T07:50:17.849Z,21.70
2018-05-09T07:52:18.820Z,21.90
2018-05-09T07:54:20.174Z,22.00
2018-05-09T07:56:21.534Z,21.90
2018-05-09T08:00:30.753Z,22.40
2018-05-09T08:02:32.146Z,22.60
2018-05-09T08:04:33.142Z,22.60
2018-05-09T08:06:34.103Z,22.60
2018-05-09T08:08:35.086Z,22.50
2018-05-09T08:10:36.078Z,22.60
2018-05-09T08:12:37.059Z,22.80
2018-05-09T08:14:38.447Z,22.80
2018-05-09T08:16:39.430Z,22.80
2018-05-09T08:18:40.397Z,22.80
2018-05-09T08:20:41.390Z,22.80
2018-05-09T08:22:42.639Z,22.90
2018-05-09T08:24:43.626Z,22.80
2018-05-09T08:26:44.666Z,22.90
2018-05-09T08:28:45.686Z,23.00
2018-05-09T08:30:46.681Z,23.20
2018-05-09T08:32:47.661Z,23.30
2018-05-09T08:34:48.633Z,23.30
2018-05-09T08:36:49.603Z,23.40
2018-05-09T08:38:51.130Z,23.70
2018-05-09T08:40:52.122Z,23.70
2018-05-09T08:42:53.123Z,23.70
2018-05-09T08:44:54.469Z,23.80
2018-05-09T08:46:55.819Z,24.00
2018-05-09T08:48:56.814Z,24.00
2018-05-09T08:50:57.855Z,24.00
2018-05-09T08:52:58.843Z,24.10
2018-05-09T08:54:59.838Z,24.10
2018-05-09T08:57:01.198Z,24.20
2018-05-09T08:59:02.547Z,24.10
2018-05-09T09:01:03.549Z,24.10
2018-05-09T09:03:04.526Z,24.40
2018-05-09T09:05:05.557Z,24.30
2018-05-09T09:07:06.666Z,24.60
2018-05-09T09:09:07.646Z,24.90
2018-05-09T09:11:08.634Z,24.90
2018-05-09T09:13:09.625Z,24.70
2018-05-09T09:15:10.717Z,24.30
2018-05-09T09:17:11.718Z,24.40
2018-05-09T09:19:12.711Z,24.30
2018-05-09T09:21:13.702Z,24.40
2018-05-09T09:23:14.670Z,24.70
2018-05-09T09:25:16.066Z,24.80
2018-05-09T09:27:17.045Z,24.80
2018-05-09T09:29:18.070Z,24.80
2018-05-09T09:31:19.018Z,24.90
2018-05-09T09:33:20.027Z,25.10
2018-05-09T09:35:21.042Z,25.00
2018-05-09T09:37:22.022Z,25.10
2018-05-09T09:39:23.411Z,25.20
2018-05-09T09:41:24.377Z,25.20
2018-05-09T09:43:25.742Z,25.00
2018-05-09T09:45:27.123Z,25.20
2018-05-09T09:47:28.093Z,25.20
2018-05-09T09:49:29.054Z,25.40
2018-05-09T09:51:30.395Z,25.50
2018-05-09T09:53:31.766Z,25.90
2018-05-09T09:55:32.882Z,25.90
2018-05-09T09:57:34.238Z,26.10
2018-05-09T09:59:35.230Z,26.10
2018-05-09T10:01:36.273Z,26.30
2018-05-09T10:03:37.178Z,25.70
2018-05-09T10:05:38.254Z,26.00
2018-05-09T10:07:39.619Z,25.80
2018-05-09T10:09:40.581Z,25.80
2018-05-09T10:11:41.846Z,26.00
2018-05-09T10:13:42.839Z,25.90
2018-05-09T10:15:43.838Z,25.90
2018-05-09T10:17:44.870Z,25.90
2018-05-09T10:19:45.863Z,25.70
2018-05-09T10:21:46.826Z,26.00
2018-05-09T10:23:47.850Z,26.00
2018-05-09T10:25:48.842Z,26.10
2018-05-09T10:27:49.811Z,26.40
2018-05-09T10:29:50.785Z,26.50
2018-05-09T10:31:52.326Z,26.70
2018-05-09T10:33:53.293Z,26.70
2018-05-09T10:35:54.494Z,26.10
2018-05-09T10:37:55.474Z,26.50
2018-05-09T10:39:56.470Z,26.30
2018-05-09T10:41:57.466Z,26.20
2018-05-09T10:43:58.453Z,26.10
2018-05-09T10:45:59.818Z,26.90
2018-05-09T10:48:01.135Z,26.90
2018-05-09T10:50:02.515Z,27.40
2018-05-09T10:52:03.519Z,27.50
2018-05-09T10:54:04.897Z,27.70
2018-05-09T10:56:05.890Z,27.70
2018-05-09T10:58:06.916Z,27.60
2018-05-09T11:00:07.887Z,27.60
2018-05-09T11:02:08.846Z,27.10
2018-05-09T11:04:09.846Z,27.40
2018-05-09T11:06:11.167Z,27.60
2018-05-09T11:08:12.176Z,27.60
2018-05-09T11:10:13.139Z,27.60
2018-05-09T11:12:14.135Z,27.40
2018-05-09T11:14:22.054Z,27.20
2018-05-09T11:16:23.056Z,27.70
2018-05-09T11:18:24.059Z,28.10
2018-05-09T11:20:25.458Z,28.40
2018-05-09T11:22:26.466Z,28.40
2018-05-09T11:24:27.457Z,27.90
2018-05-09T11:26:28.390Z,27.50
2018-05-09T11:28:29.758Z,27.20
2018-05-09T11:30:30.750Z,27.20
2018-05-09T11:32:31.750Z,27.80
2018-05-09T11:34:32.931Z,27.40
2018-05-09T11:36:33.922Z,28.10
2018-05-09T11:38:34.934Z,27.40
2018-05-09T11:40:35.906Z,27.90
2018-05-09T11:42:36.881Z,28.00
2018-05-09T11:44:38.242Z,27.40
2018-05-09T11:46:39.618Z,28.10
2018-05-09T11:48:40.601Z,28.10
2018-05-09T11:50:41.570Z,28.60
2018-05-09T11:52:49.620Z,28.30
2018-05-09T11:54:50.643Z,28.60
2018-05-09T11:56:51.614Z,28.70
2018-05-09T11:58:52.958Z,28.60
2018-05-09T12:00:54.308Z,28.70
2018-05-09T12:02:55.656Z,29.10
2018-05-09T12:04:56.997Z,28.70
2018-05-09T12:06:58.733Z,29.10
2018-05-09T12:08:59.698Z,29.10
2018-05-09T12:11:00.694Z,29.50
2018-05-09T12:13:01.702Z,29.50
2018-05-09T12:15:02.703Z,29.40
2018-05-09T12:17:03.701Z,29.40
2018-05-09T12:19:04.665Z,29.00
2018-05-09T12:21:06.028Z,29.40
2018-05-09T12:23:07.020Z,29.40
2018-05-09T12:25:08.045Z,29.50
2018-05-09T12:27:09.034Z,29.60
2018-05-09T12:29:10.004Z,29.40
2018-05-09T12:31:10.990Z,29.20
2018-05-09T12:33:12.135Z,28.90
2018-05-09T12:35:13.255Z,29.70
2018-05-09T12:37:14.599Z,30.30
2018-05-09T12:39:15.966Z,30.80
2018-05-09T12:41:16.942Z,30.80
2018-05-09T12:43:17.934Z,31.40
2018-05-09T12:45:18.934Z,30.60
2018-05-09T12:47:19.943Z,30.80
2018-05-09T12:49:20.922Z,31.30
2018-05-09T12:51:22.278Z,31.20
2018-05-09T12:53:23.247Z,31.20
2018-05-09T12:55:24.231Z,30.80
2018-05-09T12:57:25.590Z,29.90
2018-05-09T12:59:26.591Z,29.90
2018-05-09T13:01:27.578Z,30.90
2018-05-09T13:03:28.538Z,30.50
2018-05-09T13:05:29.538Z,31.10
2018-05-09T13:07:30.563Z,31.90
2018-05-09T13:09:31.549Z,31.80
2018-05-09T13:11:32.566Z,31.80
2018-05-09T13:13:33.587Z,32.10
2018-05-09T13:15:34.554Z,32.60
2018-05-09T13:17:35.531Z,32.70
2018-05-09T13:19:36.880Z,31.70
2018-05-09T13:21:37.859Z,31.70
2018-05-09T13:23:38.873Z,32.50
2018-05-09T13:25:39.867Z,33.10
2018-05-09T13:27:41.231Z,31.80
2018-05-09T13:29:42.258Z,31.80
2018-05-09T13:31:43.664Z,32.50
2018-05-09T13:33:44.613Z,32.50
2018-05-09T13:35:45.606Z,32.40
2018-05-09T13:37:46.586Z,33.10
2018-05-09T13:39:47.643Z,33.10
2018-05-09T13:41:48.543Z,33.00
2018-05-09T13:43:49.506Z,32.30
2018-05-09T13:45:50.859Z,33.50
2018-05-09T13:47:51.854Z,33.50
2018-05-09T13:49:52.850Z,34.40
2018-05-09T13:51:53.823Z,33.60
2018-05-09T13:53:54.926Z,34.60
2018-05-09T13:55:55.810Z,34.50
2018-05-09T13:57:56.806Z,34.00
2018-05-09T13:59:57.868Z,33.40
2018-05-09T14:01:58.826Z,34.30
2018-05-09T14:04:00.190Z,33.30
2018-05-09T14:06:01.157Z,33.30
2018-05-09T14:08:02.144Z,33.20
2018-05-09T14:10:03.191Z,33.10
2018-05-09T14:12:04.178Z,32.80
2018-05-09T14:14:05.175Z,33.40
2018-05-09T14:16:06.534Z,32.30
2018-05-09T14:18:07.507Z,32.30
2018-05-09T14:20:08.492Z,32.70
2018-05-09T14:22:09.626Z,33.40
2018-05-09T14:24:10.595Z,31.30
2018-05-09T14:26:11.578Z,30.60
2018-05-09T14:28:12.579Z,31.20
2018-05-09T14:30:13.574Z,32.40
2018-05-09T14:32:14.598Z,32.00
2018-05-09T14:34:16.818Z,31.80
2018-05-09T14:36:17.794Z,31.80
2018-05-09T14:38:18.759Z,32.10
2018-05-09T14:40:19.742Z,32.60
2018-05-09T14:42:21.094Z,31.40
2018-05-09T14:44:22.274Z,31.40
2018-05-09T14:46:23.278Z,30.60
2018-05-09T14:48:24.275Z,30.30
2018-05-09T14:50:25.311Z,29.20
2018-05-09T14:52:26.319Z,29.00
2018-05-09T14:54:27.367Z,28.50
2018-05-09T14:56:28.326Z,28.20
2018-05-09T14:58:30.031Z,28.80
2018-05-09T15:00:31.310Z,28.60
2018-05-09T15:02:32.310Z,28.30
2018-05-09T15:04:33.279Z,29.00
2018-05-09T15:06:34.281Z,29.20
2018-05-09T15:08:35.277Z,29.10
2018-05-09T15:10:36.622Z,28.80
2018-05-09T15:12:37.990Z,28.00
2018-05-09T15:14:39.174Z,28.00
2018-05-09T15:16:40.742Z,27.60
2018-05-09T15:18:42.122Z,28.10
2018-05-09T15:20:43.111Z,28.10
2018-05-09T15:22:44.085Z,28.20
2018-05-09T15:24:45.074Z,27.70
2018-05-09T15:26:46.034Z,27.70
2018-05-09T15:28:47.382Z,27.40
2018-05-09T15:30:48.414Z,27.40
2018-05-09T15:32:49.786Z,27.90
2018-05-09T15:34:50.760Z,27.90
2018-05-09T15:36:51.774Z,27.60
2018-05-09T15:38:52.827Z,27.70
2018-05-09T15:40:53.719Z,27.60
2018-05-09T15:42:54.795Z,27.30
2018-05-09T15:44:55.763Z,26.90
2018-05-09T15:46:57.128Z,27.00
2018-05-09T15:48:58.106Z,27.00
2018-05-09T15:50:59.086Z,27.00
2018-05-09T15:53:00.066Z,27.00
2018-05-09T15:55:01.182Z,27.00
2018-05-09T15:57:02.170Z,27.00
2018-05-09T15:59:03.181Z,26.90
2018-05-09T16:01:04.194Z,26.90
2018-05-09T16:03:05.181Z,27.00
2018-05-09T16:05:06.527Z,26.90
2018-05-09T16:07:07.918Z,26.80
2018-05-09T16:09:08.894Z,26.80
2018-05-09T16:11:09.865Z,26.80
2018-05-09T16:13:10.875Z,26.90
2018-05-09T16:15:12.213Z,26.70
2018-05-09T16:17:13.559Z,26.80
2018-05-09T16:19:14.912Z,26.90
2018-05-09T16:21:16.350Z,26.90
2018-05-09T16:23:17.766Z,26.90
2018-05-09T16:25:18.773Z,26.90
2018-05-09T16:27:19.786Z,26.80
2018-05-09T16:29:20.791Z,26.90
2018-05-09T16:31:21.771Z,27.00
2018-05-09T16:33:22.987Z,26.70
2018-05-09T16:35:24.313Z,26.50
2018-05-09T16:37:25.281Z,26.50
2018-05-09T16:39:26.278Z,26.40
2018-05-09T16:41:27.275Z,26.40
2018-05-09T16:43:28.263Z,26.60
2018-05-09T16:45:29.602Z,26.50
2018-05-09T16:47:30.942Z,26.50
2018-05-09T16:49:32.575Z,26.40
2018-05-09T16:51:33.558Z,26.40
2018-05-09T16:53:34.512Z,26.40
2018-05-09T16:55:35.563Z,26.50
2018-05-09T16:57:36.594Z,26.50
2018-05-09T16:59:37.630Z,26.50
2018-05-09T17:01:38.579Z,26.40
2018-05-09T17:03:39.582Z,26.50
2018-05-09T17:05:40.562Z,26.50
2018-05-09T17:07:41.531Z,26.40
2018-05-09T17:09:49.431Z,26.20
2018-05-09T17:11:50.402Z,26.20
2018-05-09T17:13:51.374Z,26.20
2018-05-09T17:15:52.727Z,26.20
2018-05-09T17:17:54.151Z,26.20
2018-05-09T17:19:55.126Z,26.20
2018-05-09T17:22:14.654Z,26.10
2018-05-09T17:24:15.838Z,26.00
2018-05-09T17:26:16.790Z,26.00
2018-05-09T17:28:17.772Z,26.00
2018-05-09T17:30:18.822Z,26.00
2018-05-09T17:32:19.734Z,25.90
2018-05-09T17:34:20.886Z,25.90
2018-05-09T17:36:22.242Z,25.80
2018-05-09T17:38:23.593Z,25.70
2018-05-09T17:40:24.570Z,25.70
2018-05-09T17:42:25.584Z,25.70
2018-05-09T17:44:26.550Z,25.70
2018-05-09T17:46:27.526Z,25.60
2018-05-09T17:48:28.877Z,25.50
2018-05-09T17:50:29.852Z,25.50
2018-05-09T17:52:30.845Z,25.50
2018-05-09T17:54:31.818Z,25.40
2018-05-09T17:56:32.806Z,25.40
2018-05-09T17:58:34.177Z,25.40
2018-05-09T18:00:35.139Z,25.40
2018-05-09T18:02:36.098Z,25.40
2018-05-09T18:04:37.084Z,25.40
2018-05-09T18:06:38.066Z,25.40
2018-05-09T18:08:39.043Z,25.40
2018-05-09T18:10:40.038Z,25.40
2018-05-09T18:12:41.013Z,25.40
2018-05-09T18:14:42.083Z,25.20
2018-05-09T18:16:43.016Z,25.20
2018-05-09T18:18:44.138Z,25.20
2018-05-09T18:20:45.139Z,25.20
2018-05-09T18:22:46.498Z,25.10
2018-05-09T18:24:47.498Z,25.10
2018-05-09T18:26:48.534Z,25.20
2018-05-09T18:28:49.469Z,25.10
2018-05-09T18:30:50.799Z,25.00
2018-05-09T18:32:51.786Z,24.90
2018-05-09T18:34:52.809Z,24.90
2018-05-09T18:36:53.905Z,24.80
2018-05-09T18:38:54.907Z,24.80
2018-05-09T18:40:55.900Z,24.70
2018-05-09T18:42:57.262Z,24.70
2018-05-09T18:44:58.591Z,24.70
2018-05-09T18:46:59.918Z,24.80
2018-05-09T18:49:00.902Z,24.80
2018-05-09T18:51:01.897Z,24.70
2018-05-09T18:53:03.243Z,24.50
2018-05-09T18:55:04.587Z,24.40
2018-05-09T18:57:05.991Z,24.50
2018-05-09T18:59:07.046Z,24.50
2018-05-09T19:01:08.023Z,24.40
2018-05-09T19:03:08.997Z,24.30
2018-05-09T19:05:10.037Z,24.30
2018-05-09T19:07:11.015Z,24.20
2018-05-09T19:09:11.998Z,24.20
2018-05-09T19:11:12.981Z,24.10
2018-05-09T19:13:14.373Z,24.00
2018-05-09T19:15:15.346Z,24.00
2018-05-09T19:17:16.691Z,23.90
2018-05-09T19:19:18.317Z,23.70
2018-05-09T19:21:19.283Z,23.70
2018-05-09T19:23:20.632Z,23.40
2018-05-09T19:25:21.997Z,23.40
2018-05-09T19:27:22.979Z,23.40
2018-05-09T19:29:23.971Z,23.40
2018-05-09T19:31:24.947Z,23.10
2018-05-09T19:33:25.918Z,22.90
2018-05-09T19:35:26.906Z,22.90
2018-05-09T19:37:27.898Z,22.80
2018-05-09T19:39:28.870Z,22.90
2018-05-09T19:41:29.851Z,22.80
2018-05-09T19:43:31.362Z,22.70
2018-05-09T19:45:32.311Z,22.70
2018-05-09T19:47:33.295Z,22.60
2018-05-09T19:49:34.280Z,22.60
2018-05-09T19:51:35.266Z,22.50
2018-05-09T19:53:36.253Z,22.50
2018-05-09T19:55:37.239Z,22.60
2018-05-09T19:57:38.466Z,22.40
2018-05-09T19:59:39.454Z,22.30
2018-05-09T20:01:40.684Z,22.10
2018-05-09T20:03:41.705Z,22.20
2018-05-09T20:05:42.694Z,22.30
2018-05-09T20:07:44.088Z,22.20
2018-05-09T20:09:45.099Z,22.20
2018-05-09T20:11:46.107Z,22.10
2018-05-09T20:13:47.460Z,22.10
2018-05-09T20:15:48.798Z,22.10
2018-05-09T20:17:50.310Z,22.20
2018-05-09T20:19:51.290Z,22.20
2018-05-09T20:21:52.257Z,22.10
2018-05-09T20:23:53.257Z,22.10
2018-05-09T20:25:54.235Z,22.00
2018-05-09T20:27:55.230Z,21.80
2018-05-09T20:29:56.234Z,21.90
2018-05-09T20:34:49.353Z,21.80
2018-05-09T20:36:51.114Z,21.70
2018-05-09T20:38:52.107Z,21.70
2018-05-09T20:40:53.466Z,21.50
2018-05-09T20:42:54.774Z,21.50
2018-05-09T20:44:55.745Z,21.60
2018-05-09T20:46:56.718Z,21.50
2018-05-09T20:48:57.701Z,21.40
2018-05-09T20:50:59.051Z,21.30
2018-05-09T20:53:00.295Z,21.30
2018-05-09T20:55:13.686Z,21.30
2018-05-09T20:57:14.650Z,21.30
2018-05-09T20:59:15.657Z,21.40
2018-05-09T21:01:32.707Z,21.40
2018-05-09T21:03:33.677Z,21.40
2018-05-09T21:05:34.710Z,21.30
2018-05-09T21:07:47.984Z,21.40
2018-05-09T21:09:49.320Z,21.20
2018-05-09T21:12:03.255Z,21.20
2018-05-09T21:14:04.618Z,21.10
2018-05-09T21:16:05.602Z,21.10
2018-05-09T21:18:06.622Z,21.10
2018-05-09T21:20:07.814Z,21.10
2018-05-09T21:22:08.750Z,21.00
2018-05-09T21:24:10.134Z,20.80
2018-05-09T21:26:11.119Z,20.80
2018-05-09T21:28:12.525Z,20.70
2018-05-09T21:30:13.518Z,20.70
2018-05-09T21:32:14.531Z,20.90
2018-05-09T21:34:15.898Z,20.90
2018-05-09T21:36:16.863Z,20.90
2018-05-09T21:38:17.864Z,20.90
2018-05-09T21:40:19.255Z,20.70
2018-05-09T21:42:20.239Z,20.70
2018-05-09T21:44:21.662Z,20.70
2018-05-09T21:46:22.682Z,20.70
2018-05-09T21:48:23.647Z,20.60
2018-05-09T21:50:25.102Z,20.80
2018-05-09T21:52:26.094Z,20.80
2018-05-09T21:54:27.067Z,20.80
2018-05-09T21:56:28.442Z,20.50
2018-05-09T21:58:29.426Z,20.50
2018-05-09T22:00:30.426Z,20.50
2018-05-09T22:02:31.402Z,20.50
2018-05-09T22:04:32.463Z,20.40
2018-05-09T22:06:33.443Z,20.30
2018-05-09T22:08:34.459Z,20.20
2018-05-09T22:10:35.498Z,20.10
2018-05-09T22:12:36.500Z,20.10
2018-05-09T22:14:38.129Z,20.30
2018-05-09T22:16:39.486Z,20.10
2018-05-09T22:18:40.840Z,20.00
2018-05-09T22:20:41.810Z,20.00
2018-05-09T22:22:42.810Z,20.10
2018-05-09T22:24:43.773Z,20.10
2018-05-09T22:26:44.750Z,19.90
2018-05-09T22:28:45.747Z,20.10
2018-05-09T22:30:46.742Z,20.20
2018-05-09T22:32:48.081Z,20.10
2018-05-09T22:34:49.426Z,20.00
2018-05-09T22:36:50.783Z,20.20
2018-05-09T22:38:51.897Z,20.20
2018-05-09T22:40:53.525Z,20.10
2018-05-09T22:42:54.510Z,20.10
2018-05-09T22:44:55.478Z,20.10
2018-05-09T22:49:04.170Z,20.20
2018-05-09T22:51:05.162Z,20.30
2018-05-09T22:53:06.150Z,20.20
2018-05-09T22:55:07.135Z,20.30
2018-05-09T22:57:08.170Z,20.20
2018-05-09T22:59:09.145Z,20.10
2018-05-09T23:01:10.123Z,19.90
2018-05-09T23:03:11.114Z,20.00
2018-05-09T23:05:12.099Z,19.80
2018-05-09T23:07:13.087Z,19.90
2018-05-09T23:09:14.103Z,19.90
2018-05-09T23:11:15.447Z,19.80
2018-05-09T23:13:16.429Z,19.80
2018-05-09T23:15:17.613Z,19.90
2018-05-09T23:17:18.946Z,19.70
2018-05-09T23:19:19.937Z,19.70
2018-05-09T23:21:20.928Z,19.80
2018-05-09T23:23:22.293Z,19.50
2018-05-09T23:25:23.275Z,19.50
2018-05-09T23:27:24.250Z,19.30
2018-05-09T23:29:25.607Z,19.20
2018-05-09T23:31:26.595Z,19.20
2018-05-09T23:33:27.578Z,19.20
2018-05-09T23:35:28.563Z,19.30
2018-05-09T23:37:29.570Z,19.30
2018-05-09T23:39:30.530Z,19.20
2018-05-09T23:41:31.511Z,19.20
2018-05-09T23:43:32.669Z,19.20
2018-05-09T23:45:33.631Z,19.20
2018-05-09T23:47:34.606Z,19.10
2018-05-09T23:49:35.962Z,19.00
2018-05-09T23:51:36.954Z,19.00
2018-05-09T23:53:37.934Z,19.00
2018-05-09T23:55:38.975Z,19.10
2018-05-09T23:57:39.913Z,19.20
2018-05-09T23:59:40.926Z,19.20
